Glendive, MT

7:45 AM MDT on July 25, 2014 (GMT -0600)
Sidney-Richland Municipal (KSDY) Elev 1985 ft | 47.71 °N, 104.19 °W | Change Station

Current weather conditions updated 10 minutes ago

Clear
Clear
64 °F
Feels Like 64 °F
N
7
Wind Variable Wind from West

Today is forecast to be nearly the same temperature as yesterday.

Today
High -- | Low -- °F
--% Chance of Precip.
Yesterday
High -- | Low -- °F
Precip. -- in
5:29 AM 8:40 PM
Waning Crescent, 2% visible
Pressure 29.91 in
Visibility 10.0 miles
Clouds Clear
Dew Point 43 °F
Humidity 45%
Rainfall 0.00 in
Snow Depth Not available.
UV 1 out of 12
Pollen 6.90 out of 12
Air Quality Not available.
Flu Activity Not available.
METAR KSDY 251335Z AUTO 27006KT 10SM CLR 18/06 A2991 RMK AO1

More Conditions Fewer Conditions

Pressure 29.91 in
Visibility 10.0 miles
Clouds Clear
Dew Point 43 °F
Humidity 45%
Rainfall 0.00 in
Snow Depth Not available.
UV 1 out of 12
Pollen 6.90 out of 12
Air Quality Not available.
Flu Activity Not available.
METAR KSDY 251335Z AUTO 27006KT 10SM CLR 18/06 A2991 RMK AO1

More Conditions Fewer Conditions

10-Day Weather Forecast

Almanac

Astronomy

Jul. 25, 2014 Rise Set
Actual Time 5:29 AM MDT 8:40 PM MDT
Civil Twilight 4:52 AM MDT 9:17 PM MDT
Nautical Twilight 4:05 AM MDT 10:04 PM MDT
Astronomical Twilight 3:05 AM MDT 11:03 PM MDT
Moon 4:33 AM MDT 7:35 PM MDT
Length of Visible Light 16h 24m
Length of Day
15h 10m
Tomorrow will be 2m 21s shorter.
Waning Crescent, 2% of the Moon is Illuminated
Today
Waning Crescent
Jul 26
New
Aug 3
First Quarter
Aug 10
Full
Aug 17
Last Quarter

Today's Extremes

State Highs State Lows

Community

WunderPhotos

Upload Photos

1,737,324 photos uploaded!

Nearby

Snow Depth

Station Depth Elevation
Crystal Lake 0 in 6050 ft
Rocky Boy 0 in 4700 ft
Cole Creek 1 in 7850 ft
Burnt Mountain 0 in 5880 ft
Daisy Peak 0 in 7600 ft

Earthquake Activity

City Distance Mag. Time & Date
No recent earthquake activity has been reported nearby.
Minimum magnitude displayed is 2.5.

Coastal Water Temperatures

Place Temperature
No Stations Reporting

Nearby Weather Stations

Station Location Temp. Dew Point Humidity Wind Precip. Elev Updated Type
MesoWest LINDSAY 1 , Lindsay, MT 54 °F 46 °F 75% WNW  at  5 mph 0.00 in / hr 2680 ft 6:00 AM MDT MADIS
RAWS PINE HILL MT, Mildred, MT 56 °F 49 °F 76% SSE  at  1 mph 0.00 in / hr 2648 ft 6:24 AM MDT MADIS

Show More Stations Show Fewer Stations